world map with UNK marked

UNK - Airport

This information may not be accurate or current and is not valid for navigation or flight planning. No warranty of fitness for any purpose is made or implied.

flag of Alaskaflag of United States

Donate via PayPal

Additional information is available on the NEW Great Circle Mapper

Location
City:  Unalakleet, Alaska, United States
ICAO / IATA:PAUN / UNK
FAA:UNK

Details
Type:Airport (Airfield)
Use:Public/Civil
Latitude:63°53'19"N (63.888500)
Longitude:160°47'57"W (-160.799110)
Datum:WGS 1984
Elevation:27 ft (8 m)
Runways:2
Longest:5900 × 150 ft (1798 × 45.5 m)

Time
Timezone:UTC+25:08 (DST+28:08)
Local Time:

Weather
METAR:PAUN  231256Z AUTO 15003KT 10SM -SN OVC065 M26/M28 A3037 RMK AO2 SLP287 P0000 T12561283 FZRANO
TAF:PAUN  231120Z 2312/2412 10004KT P6SM OVC080= TAF PABR 231120Z 2312/2412 00000KT P6SM SKC
FM231600 34004KT 6SM -SN BR SCT015 OVC035
FM240100 30005KT P6SM BKN100

Related Locations
Nearby:
Farthest:EGAH: 11119 mi / 17894 km
Halley Research Station (Halley VI Research Station), Brunt Ice Shelf, AQ

Find:

   beyond  
but within

Other Information
Maps:
Links:
Sources:

  

Sectional Chart

Flight Planning
at skyvector.com

 


Great Circle Mapper   Great Circle Mapper
Great Circle Mapper FAQ   Great Circle Mapper FAQ
  Karl's Home Page
KLSē   KLSē Home
   GC on Facebook
Airlines of the World   Airlines of the World
Donate via PayPal


Copyright © 2004-2017, Karl L. Swartz. All rights reserved.
All trademarks mentioned herein belong to their respective owners.

Please see credits for attribution and copyright information.

Karl Swartz <karl@kls2.com>
  Powered by FreeBSD
Valid HTML 4.01!
Labeled with ICRA
hCard Microformat
Geo Microformat